createdAt,value
2023-05-19T00:01:01.818Z,102625.56
2023-05-19T00:03:31.811Z,102622.00
2023-05-19T00:06:02.913Z,102628.13
2023-05-19T00:08:32.511Z,102621.88
2023-05-19T00:11:02.677Z,102621.84
2023-05-19T00:13:31.037Z,102622.72
2023-05-19T00:15:59.606Z,102629.75
2023-05-19T00:18:29.901Z,102634.94
2023-05-19T00:20:58.067Z,102635.78
2023-05-19T00:23:26.247Z,102634.00
2023-05-19T00:25:54.432Z,102643.69
2023-05-19T00:28:23.885Z,102642.75
2023-05-19T00:30:53.731Z,102641.84
2023-05-19T00:33:21.790Z,102650.69
2023-05-19T00:35:49.857Z,102647.13
2023-05-19T00:38:17.969Z,102647.09
2023-05-19T00:40:46.701Z,102650.59
2023-05-19T00:43:14.840Z,102649.72
2023-05-19T00:45:44.652Z,102658.56
2023-05-19T00:48:12.780Z,102659.47
2023-05-19T00:50:41.752Z,102662.97
2023-05-19T00:53:09.878Z,102663.84
2023-05-19T00:55:40.579Z,102670.84
2023-05-19T00:58:11.144Z,102668.22
2023-05-19T01:00:39.864Z,102671.72
2023-05-19T01:03:11.837Z,102681.41
2023-05-19T01:05:44.725Z,102675.22
2023-05-19T01:08:12.975Z,102680.53
2023-05-19T01:10:41.134Z,102684.06
2023-05-19T01:13:09.693Z,102682.34
2023-05-19T01:15:48.222Z,102679.69
2023-05-19T01:18:26.049Z,102691.19
2023-05-19T01:21:03.904Z,102685.91
2023-05-19T01:23:40.405Z,102696.47
2023-05-19T01:26:37.248Z,102691.22
2023-05-19T01:29:37.411Z,102701.91
2023-05-19T01:32:08.873Z,102702.84
2023-05-19T01:34:43.287Z,102708.19
2023-05-19T01:37:12.855Z,102706.50
2023-05-19T01:39:41.656Z,102703.00
2023-05-19T01:42:10.444Z,102713.66
2023-05-19T01:44:39.269Z,102717.22
2023-05-19T01:47:09.916Z,102721.72
2023-05-19T01:49:38.129Z,102717.34
2023-05-19T01:52:06.723Z,102725.34
2023-05-19T01:54:34.929Z,102728.03
2023-05-19T01:57:14.025Z,102733.41
2023-05-19T01:59:47.455Z,102736.13
2023-05-19T02:02:26.907Z,102741.50
2023-05-19T02:05:01.258Z,102742.47
2023-05-19T02:07:38.729Z,102746.94
2023-05-19T02:10:11.844Z,102740.84
2023-05-19T02:12:41.769Z,102744.50
2023-05-19T02:15:15.356Z,102737.47
2023-05-19T02:17:48.286Z,102741.94
2023-05-19T02:20:36.710Z,102740.22
2023-05-19T02:23:04.892Z,102744.66
2023-05-19T02:25:32.969Z,102744.69
2023-05-19T02:28:01.475Z,102747.31
2023-05-19T02:30:32.163Z,102746.44
2023-05-19T02:33:03.043Z,102744.63
2023-05-19T02:35:31.166Z,102743.72
2023-05-19T02:37:59.297Z,102743.63
2023-05-19T02:40:27.379Z,102742.63
2023-05-19T02:42:56.376Z,102735.47
2023-05-19T02:45:24.390Z,102753.94
2023-05-19T02:47:52.505Z,102744.88
2023-05-19T02:50:22.590Z,102751.63
2023-05-19T02:52:50.689Z,102755.63
2023-05-19T02:55:18.767Z,102750.50
2023-05-19T02:57:46.804Z,102747.03
2023-05-19T03:00:16.051Z,102756.63
2023-05-19T03:02:45.989Z,102751.56
2023-05-19T03:05:14.337Z,102754.00
2023-05-19T03:07:43.793Z,102752.28
2023-05-19T03:10:12.032Z,102758.13
2023-05-19T03:12:40.281Z,102759.88
2023-05-19T03:15:09.227Z,102754.81
2023-05-19T03:17:37.332Z,102754.16
2023-05-19T03:20:06.354Z,102755.59
2023-05-19T03:22:34.404Z,102769.13
2023-05-19T03:25:04.312Z,102771.59
2023-05-19T03:27:33.801Z,102765.84
2023-05-19T03:30:02.752Z,102764.94
2023-05-19T03:32:33.975Z,102776.66
2023-05-19T03:35:02.759Z,102769.78
2023-05-19T03:37:32.508Z,102773.72
2023-05-19T03:40:00.927Z,102779.44
2023-05-19T03:42:30.539Z,102783.50
2023-05-19T03:44:58.691Z,102785.72
2023-05-19T03:47:26.892Z,102788.38
2023-05-19T03:50:05.220Z,102789.94
2023-05-19T03:52:53.642Z,102796.72
2023-05-19T03:55:30.676Z,102801.19
2023-05-19T03:58:00.208Z,102806.25
2023-05-19T04:00:28.329Z,102800.81
2023-05-19T04:02:56.865Z,102800.16
2023-05-19T04:05:25.644Z,102799.72
2023-05-19T04:07:55.607Z,102797.03
2023-05-19T04:10:25.305Z,102814.75
2023-05-19T04:12:56.185Z,102803.72
2023-05-19T04:15:26.426Z,102812.19
2023-05-19T04:17:54.698Z,102816.88
2023-05-19T04:20:22.840Z,102805.28
2023-05-19T04:22:52.066Z,102813.16
2023-05-19T04:25:21.138Z,102809.50
2023-05-19T04:27:49.853Z,102809.63
2023-05-19T04:30:29.432Z,102824.38
2023-05-19T04:33:01.271Z,102819.91
2023-05-19T04:35:29.656Z,102816.25
2023-05-19T04:37:58.906Z,102810.44
2023-05-19T04:40:31.519Z,102811.38
2023-05-19T04:43:02.153Z,102818.63
2023-05-19T04:45:33.138Z,102817.38
2023-05-19T04:48:05.329Z,102819.34
2023-05-19T04:50:34.391Z,102821.34
2023-05-19T04:53:02.641Z,102823.25
2023-05-19T04:55:31.055Z,102822.81
2023-05-19T04:57:59.485Z,102834.50
2023-05-19T05:00:28.381Z,102816.03
2023-05-19T05:03:00.595Z,102827.91
2023-05-19T05:05:32.907Z,102824.34
2023-05-19T05:08:01.808Z,102826.59
2023-05-19T05:10:34.052Z,102826.81
2023-05-19T05:13:03.120Z,102827.91
2023-05-19T05:15:32.087Z,102827.97
2023-05-19T05:18:03.136Z,102831.56
2023-05-19T05:20:34.186Z,102823.75
2023-05-19T05:23:03.736Z,102824.41
2023-05-19T05:25:33.977Z,102828.16
2023-05-19T05:28:05.281Z,102823.78
2023-05-19T05:30:36.184Z,102828.03
2023-05-19T05:33:06.484Z,102831.09
2023-05-19T05:35:39.936Z,102832.78
2023-05-19T05:38:11.605Z,102835.38
2023-05-19T05:40:40.761Z,102837.38
2023-05-19T05:43:09.882Z,102846.09
2023-05-19T05:45:43.964Z,102847.91
2023-05-19T05:48:12.888Z,102846.28
2023-05-19T05:50:44.796Z,102843.00
2023-05-19T05:53:18.912Z,102836.00
2023-05-19T05:55:49.308Z,102849.59
2023-05-19T05:58:18.555Z,102861.25
2023-05-19T06:00:48.644Z,102857.50
2023-05-19T06:03:17.950Z,102852.09
2023-05-19T06:05:47.711Z,102849.53
2023-05-19T06:08:17.366Z,102851.66
2023-05-19T06:10:47.369Z,102857.66
2023-05-19T06:13:18.022Z,102853.72
2023-05-19T06:15:47.695Z,102857.97
2023-05-19T06:18:25.209Z,102860.50
2023-05-19T06:20:55.718Z,102859.75
2023-05-19T06:23:24.017Z,102870.78
2023-05-19T06:25:52.343Z,102869.72
2023-05-19T06:28:20.624Z,102874.47
2023-05-19T06:30:48.880Z,102872.53
2023-05-19T06:33:50.114Z,102871.88
2023-05-19T06:36:19.694Z,102877.97
2023-05-19T06:38:48.655Z,102873.72
2023-05-19T06:41:17.270Z,102876.56
2023-05-19T06:43:48.401Z,102879.59
2023-05-19T06:46:17.847Z,102871.47
2023-05-19T06:48:46.283Z,102879.03
2023-05-19T06:51:15.702Z,102880.06
2023-05-19T06:53:46.064Z,102866.91
2023-05-19T06:56:15.035Z,102879.72
2023-05-19T06:58:43.746Z,102878.50
2023-05-19T07:01:12.757Z,102871.06
2023-05-19T07:03:46.918Z,102863.06
2023-05-19T07:06:16.340Z,102870.22
2023-05-19T07:08:46.373Z,102866.34
2023-05-19T07:11:14.865Z,102867.28
2023-05-19T07:13:44.365Z,102874.00
2023-05-19T07:16:13.403Z,102867.72
2023-05-19T07:18:41.799Z,102871.16
2023-05-19T07:21:11.814Z,102875.16
2023-05-19T07:23:40.081Z,102866.09
2023-05-19T07:26:09.573Z,102863.09
2023-05-19T07:28:39.873Z,102860.06
2023-05-19T07:31:10.300Z,102866.44
2023-05-19T07:33:38.435Z,102865.91
2023-05-19T07:36:06.729Z,102865.13
2023-05-19T07:38:35.819Z,102868.31
2023-05-19T07:41:04.487Z,102865.25
2023-05-19T07:43:34.255Z,102875.91
2023-05-19T07:46:02.496Z,102879.34
2023-05-19T07:48:30.730Z,102873.31
2023-05-19T07:50:58.939Z,102869.38
2023-05-19T07:53:28.041Z,102875.13
2023-05-19T07:55:58.407Z,102874.00
2023-05-19T07:58:27.213Z,102871.53
2023-05-19T08:00:58.505Z,102875.38
2023-05-19T08:03:26.930Z,102871.34
2023-05-19T08:05:55.153Z,102877.31
2023-05-19T08:08:23.348Z,102874.00
2023-05-19T08:10:51.482Z,102871.53
2023-05-19T08:13:19.593Z,102880.41
2023-05-19T08:15:47.948Z,102873.81
2023-05-19T08:18:17.449Z,102874.94
2023-05-19T08:20:46.409Z,102879.13
2023-05-19T08:23:14.501Z,102871.22
2023-05-19T08:25:42.545Z,102884.41
2023-05-19T08:28:10.788Z,102882.16
2023-05-19T08:30:39.033Z,102877.84
2023-05-19T08:33:07.545Z,102874.66
2023-05-19T08:35:37.318Z,102875.69
2023-05-19T08:38:05.498Z,102873.28
2023-05-19T08:40:36.132Z,102866.19
2023-05-19T08:43:04.506Z,102879.22
2023-05-19T08:45:34.744Z,102874.84
2023-05-19T08:48:04.221Z,102883.25
2023-05-19T08:50:36.436Z,102866.97
2023-05-19T08:53:31.353Z,102878.31
2023-05-19T08:56:10.216Z,102881.19
2023-05-19T08:58:41.456Z,102872.81
2023-05-19T09:01:10.051Z,102877.94
2023-05-19T09:03:39.277Z,102876.34
2023-05-19T09:06:08.914Z,102872.19
2023-05-19T09:08:38.559Z,102886.84
2023-05-19T09:11:07.646Z,102890.13
2023-05-19T09:13:36.028Z,102905.53
2023-05-19T09:16:04.462Z,102896.88
2023-05-19T09:18:33.060Z,102883.97
2023-05-19T09:21:02.778Z,102881.84
2023-05-19T09:23:33.628Z,102885.72
2023-05-19T09:26:07.256Z,102881.00
2023-05-19T09:28:38.041Z,102882.72
2023-05-19T09:31:07.837Z,102880.75
2023-05-19T09:33:37.363Z,102873.63
2023-05-19T09:36:08.338Z,102875.91
2023-05-19T09:38:37.393Z,102882.59
2023-05-19T09:41:08.019Z,102876.34
2023-05-19T09:43:36.527Z,102873.88
2023-05-19T09:46:06.829Z,102880.53
2023-05-19T09:48:36.553Z,102876.16
2023-05-19T09:51:06.481Z,102868.34
2023-05-19T09:53:35.524Z,102865.88
2023-05-19T09:56:03.981Z,102877.91
2023-05-19T09:58:36.528Z,102875.25
2023-05-19T10:01:06.103Z,102879.72
2023-05-19T10:03:35.480Z,102872.50
2023-05-19T10:06:05.519Z,102885.03
2023-05-19T10:08:36.037Z,102873.56
2023-05-19T10:11:04.695Z,102874.19
2023-05-19T10:13:38.718Z,102870.47
2023-05-19T10:16:07.885Z,102868.13
2023-05-19T10:18:37.556Z,102854.75
2023-05-19T10:21:09.475Z,102873.66
2023-05-19T10:23:37.804Z,102861.41
2023-05-19T10:26:07.718Z,102876.38
2023-05-19T10:28:40.555Z,102869.91
2023-05-19T10:31:12.417Z,102866.72
2023-05-19T10:33:58.064Z,102870.13
2023-05-19T10:36:45.453Z,102865.16
2023-05-19T10:39:19.074Z,102861.41
2023-05-19T10:42:02.412Z,102869.50
2023-05-19T10:44:47.628Z,102868.63
2023-05-19T10:47:16.030Z,102868.56
2023-05-19T10:49:44.099Z,102858.03
2023-05-19T10:52:23.170Z,102870.88
2023-05-19T10:54:54.460Z,102868.31
2023-05-19T10:57:28.149Z,102879.06
2023-05-19T10:59:58.141Z,102879.28
2023-05-19T11:02:47.564Z,102872.13
2023-05-19T11:05:19.541Z,102870.53
2023-05-19T11:07:57.450Z,102864.31
2023-05-19T11:10:25.551Z,102885.09
2023-05-19T11:12:53.732Z,102881.50
2023-05-19T11:15:27.512Z,102890.44
2023-05-19T11:17:56.158Z,102884.19
2023-05-19T11:20:25.395Z,102888.88
2023-05-19T11:23:07.222Z,102888.34
2023-05-19T11:25:46.996Z,102890.16
2023-05-19T11:28:17.660Z,102882.94
2023-05-19T11:30:50.637Z,102892.97
2023-05-19T11:33:20.369Z,102898.75
2023-05-19T11:35:49.890Z,102898.75
2023-05-19T11:38:18.338Z,102891.53
2023-05-19T11:40:47.755Z,102894.44
2023-05-19T11:43:16.323Z,102893.97
2023-05-19T11:45:44.449Z,102893.91
2023-05-19T11:48:15.956Z,102890.66
2023-05-19T11:50:45.016Z,102896.81
2023-05-19T11:53:14.202Z,102883.44
2023-05-19T11:55:47.132Z,102892.41
2023-05-19T11:58:16.029Z,102888.75
2023-05-19T12:00:47.749Z,102882.53
2023-05-19T12:03:22.880Z,102889.00
2023-05-19T12:05:51.451Z,102889.19
2023-05-19T12:08:19.720Z,102882.00
2023-05-19T12:10:49.889Z,102885.56
2023-05-19T12:13:18.093Z,102883.66
2023-05-19T12:15:46.192Z,102894.34
2023-05-19T12:18:14.401Z,102888.13
2023-05-19T12:20:44.516Z,102887.31
2023-05-19T12:23:13.530Z,102891.06
2023-05-19T12:25:41.701Z,102887.66
2023-05-19T12:28:09.787Z,102881.44
2023-05-19T12:30:38.337Z,102893.00
2023-05-19T12:33:06.749Z,102881.44
2023-05-19T12:35:36.320Z,102891.53
2023-05-19T12:38:07.749Z,102885.34
2023-05-19T12:40:37.350Z,102889.91
2023-05-19T12:43:07.890Z,102892.75
2023-05-19T12:45:37.008Z,102895.41
2023-05-19T12:48:06.714Z,102891.75
2023-05-19T12:50:35.356Z,102903.38
2023-05-19T12:53:03.669Z,102901.66
2023-05-19T12:55:39.485Z,102907.84
2023-05-19T12:58:08.714Z,102907.94
2023-05-19T13:00:42.539Z,102905.22
2023-05-19T13:03:18.391Z,102905.31
2023-05-19T13:05:48.037Z,102908.13
2023-05-19T13:08:18.147Z,102908.97
2023-05-19T13:10:49.257Z,102902.72
2023-05-19T13:13:18.011Z,102903.56
2023-05-19T13:15:48.949Z,102902.72
2023-05-19T13:18:17.826Z,102895.53
2023-05-19T13:20:49.210Z,102903.47
2023-05-19T13:23:18.612Z,102907.88
2023-05-19T13:25:48.170Z,102912.34
2023-05-19T13:28:16.343Z,102911.56
2023-05-19T13:30:45.802Z,102906.38
2023-05-19T13:33:14.077Z,102909.16
2023-05-19T13:35:42.250Z,102894.06
2023-05-19T13:38:11.302Z,102898.63
2023-05-19T13:40:39.814Z,102895.84
2023-05-19T13:43:09.728Z,102890.53
2023-05-19T13:45:38.136Z,102904.88
2023-05-19T13:48:07.446Z,102900.50
2023-05-19T13:50:35.808Z,102901.53
2023-05-19T13:53:03.910Z,102899.81
2023-05-19T13:55:32.195Z,102898.94
2023-05-19T13:58:00.301Z,102910.50
2023-05-19T14:00:31.671Z,102900.78
2023-05-19T14:03:00.728Z,102909.78
2023-05-19T14:05:29.293Z,102909.84
2023-05-19T14:07:58.222Z,102901.00
2023-05-19T14:10:26.523Z,102904.59
2023-05-19T14:13:29.077Z,102909.09
2023-05-19T14:15:44.683Z,102911.81
2023-05-19T14:18:12.854Z,102897.63
2023-05-19T14:20:40.926Z,102905.69
2023-05-19T14:23:09.101Z,102907.41
2023-05-19T14:25:37.179Z,102910.97
2023-05-19T14:28:05.492Z,102899.47
2023-05-19T14:30:34.064Z,102895.03
2023-05-19T14:33:03.906Z,102898.56
2023-05-19T14:35:31.984Z,102893.28
2023-05-19T14:38:00.086Z,102901.28
2023-05-19T14:40:28.189Z,102898.63
2023-05-19T14:42:56.270Z,102906.75
2023-05-19T14:45:24.437Z,102898.81
2023-05-19T14:47:52.762Z,102906.81
2023-05-19T14:50:22.630Z,102899.75
2023-05-19T14:52:50.872Z,102897.19
2023-05-19T14:55:19.113Z,102889.22
2023-05-19T14:57:48.527Z,102891.84
2023-05-19T15:00:16.965Z,102901.63
2023-05-19T15:02:45.254Z,102904.28
2023-05-19T15:05:13.441Z,102909.63
2023-05-19T15:07:42.920Z,102897.19
2023-05-19T15:10:11.354Z,102905.19
2023-05-19T15:12:39.571Z,102914.09
2023-05-19T15:15:08.855Z,102909.69
2023-05-19T15:17:37.024Z,102915.00
2023-05-19T15:20:05.734Z,102917.69
2023-05-19T15:22:34.167Z,102918.56
2023-05-19T15:25:03.737Z,102922.13
2023-05-19T15:27:31.961Z,102929.22
2023-05-19T15:30:00.054Z,102933.63
2023-05-19T15:32:28.295Z,102931.00
2023-05-19T15:34:56.359Z,102937.28
2023-05-19T15:37:24.721Z,102933.72
2023-05-19T15:39:53.048Z,102937.28
2023-05-19T15:42:22.874Z,102950.63
2023-05-19T15:44:51.066Z,102945.25
2023-05-19T15:47:19.129Z,102947.88
2023-05-19T15:49:47.800Z,102950.56
2023-05-19T15:52:15.981Z,102952.34
2023-05-19T15:54:44.290Z,102955.88
2023-05-19T15:57:13.576Z,102953.19
2023-05-19T15:59:43.089Z,102944.25
2023-05-19T16:02:12.737Z,102955.81
2023-05-19T16:04:41.024Z,102954.09
2023-05-19T16:07:09.158Z,102960.31
2023-05-19T16:09:37.353Z,102965.59
2023-05-19T16:12:06.718Z,102953.16
2023-05-19T16:14:36.734Z,102957.59
2023-05-19T16:17:11.443Z,102963.81
2023-05-19T16:19:39.748Z,102962.97
2023-05-19T16:22:07.829Z,102961.16
2023-05-19T16:24:35.870Z,102965.59
2023-05-19T16:27:04.949Z,102964.75
2023-05-19T16:29:33.105Z,102964.75
2023-05-19T16:32:01.356Z,102961.19
2023-05-19T16:34:30.838Z,102968.31
2023-05-19T16:36:59.005Z,102968.34
2023-05-19T16:39:27.149Z,102963.94
2023-05-19T16:41:55.429Z,102974.63
2023-05-19T16:44:24.651Z,102965.72
2023-05-19T16:46:52.697Z,102966.63
2023-05-19T16:49:20.947Z,102972.88
2023-05-19T16:51:50.443Z,102972.03
2023-05-19T16:54:18.777Z,102970.28
2023-05-19T16:56:47.325Z,102971.16
2023-05-19T16:59:15.408Z,102969.44
2023-05-19T17:01:43.533Z,102971.22
2023-05-19T17:04:11.767Z,102978.34
2023-05-19T17:06:39.930Z,102986.34
2023-05-19T17:09:09.505Z,102972.97
2023-05-19T17:11:37.558Z,102972.97
2023-05-19T17:14:08.096Z,102971.25
2023-05-19T17:16:36.314Z,102970.34
2023-05-19T17:19:04.671Z,102972.13
2023-05-19T17:21:32.788Z,102973.91
2023-05-19T17:24:01.050Z,102968.59
2023-05-19T17:26:30.531Z,102970.38
2023-05-19T17:28:58.614Z,102972.16
2023-05-19T17:31:26.773Z,102972.16
2023-05-19T17:33:55.164Z,102962.41
2023-05-19T17:36:23.399Z,102964.19
2023-05-19T17:38:51.510Z,102966.00
2023-05-19T17:41:19.626Z,102964.19
2023-05-19T17:43:49.500Z,102965.09
2023-05-19T17:46:17.797Z,102966.88
2023-05-19T17:48:45.926Z,102967.78
2023-05-19T17:51:13.995Z,102960.69
2023-05-19T17:53:43.011Z,102963.38
2023-05-19T17:56:13.132Z,102966.03
2023-05-19T17:58:41.747Z,102962.50
2023-05-19T18:01:11.734Z,102958.94
2023-05-19T18:03:40.454Z,102950.97
2023-05-19T18:06:09.038Z,102961.63
2023-05-19T18:08:38.700Z,102961.63
2023-05-19T18:11:07.117Z,102958.97
2023-05-19T18:13:35.827Z,102966.09
2023-05-19T18:16:04.061Z,102969.63
2023-05-19T18:18:34.739Z,102966.09
2023-05-19T18:21:03.142Z,102972.34
2023-05-19T18:23:31.629Z,102973.22
2023-05-19T18:26:00.233Z,102978.53
2023-05-19T18:28:29.737Z,102977.69
2023-05-19T18:31:01.715Z,102981.22
2023-05-19T18:33:31.315Z,102976.78
2023-05-19T18:36:01.694Z,102972.34
2023-05-19T18:38:30.193Z,102982.13
2023-05-19T18:41:00.757Z,102989.22
2023-05-19T18:43:30.155Z,102989.25
2023-05-19T18:45:58.598Z,102986.56
2023-05-19T18:48:27.123Z,102991.00
2023-05-19T18:50:55.406Z,102985.69
2023-05-19T18:53:24.878Z,102996.34
2023-05-19T18:55:52.959Z,102995.47
2023-05-19T18:58:21.673Z,102991.91
2023-05-19T19:00:50.433Z,102997.22
2023-05-19T19:03:18.577Z,102999.00
2023-05-19T19:05:46.695Z,102994.59
2023-05-19T19:08:14.823Z,102998.13
2023-05-19T19:10:44.890Z,102997.22
2023-05-19T19:13:12.962Z,102995.44
2023-05-19T19:15:41.210Z,103002.53
2023-05-19T19:18:09.361Z,102997.22
2023-05-19T19:20:37.490Z,102993.69
2023-05-19T19:23:06.727Z,102994.56
2023-05-19T19:25:35.035Z,102997.22
2023-05-19T19:28:04.779Z,102998.09
2023-05-19T19:30:33.160Z,103004.31
2023-05-19T19:33:01.370Z,102996.34
2023-05-19T19:35:29.579Z,103006.97
2023-05-19T19:37:58.506Z,102998.97
2023-05-19T19:40:26.776Z,103000.78
2023-05-19T19:42:55.201Z,102997.22
2023-05-19T19:45:24.769Z,102999.84
2023-05-19T19:47:52.983Z,103002.53
2023-05-19T19:50:22.132Z,103003.41
2023-05-19T19:52:50.613Z,102997.19
2023-05-19T19:55:18.899Z,103001.63
2023-05-19T19:57:49.581Z,103001.63
2023-05-19T20:00:18.534Z,103006.03
2023-05-19T20:03:03.495Z,102998.91
2023-05-19T20:05:33.373Z,103001.56
2023-05-19T20:08:01.546Z,103005.13
2023-05-19T20:10:29.615Z,103009.56
2023-05-19T20:12:58.892Z,103010.41
2023-05-19T20:15:27.207Z,103006.88
2023-05-19T20:17:56.667Z,103011.28
2023-05-19T20:20:24.761Z,103008.66
2023-05-19T20:22:52.909Z,103013.06
2023-05-19T20:25:21.114Z,103015.72
2023-05-19T20:27:49.230Z,103011.28
2023-05-19T20:30:17.471Z,103013.94
2023-05-19T20:32:46.951Z,103017.47
2023-05-19T20:35:20.478Z,103016.59
2023-05-19T20:37:49.474Z,103021.91
2023-05-19T20:40:18.753Z,103018.34
2023-05-19T20:42:47.338Z,103024.56
2023-05-19T20:45:16.630Z,103036.94
2023-05-19T20:47:44.830Z,103027.19
2023-05-19T20:50:12.997Z,103031.56
2023-05-19T20:52:42.466Z,103037.75
2023-05-19T20:55:10.728Z,103031.56
2023-05-19T20:57:39.138Z,103039.50
2023-05-19T21:00:09.123Z,103027.97
2023-05-19T21:02:37.681Z,103042.16
2023-05-19T21:05:06.608Z,103030.63
2023-05-19T21:07:35.022Z,103037.72
2023-05-19T21:10:04.480Z,103042.13
2023-05-19T21:12:34.240Z,103043.91
2023-05-19T21:15:03.724Z,103042.13
2023-05-19T21:17:31.913Z,103046.53
2023-05-19T21:20:00.622Z,103045.63
2023-05-19T21:22:28.957Z,103053.59
2023-05-19T21:24:57.047Z,103054.47
2023-05-19T21:27:26.535Z,103061.53
2023-05-19T21:29:55.080Z,103058.00
2023-05-19T21:32:23.185Z,103062.38
2023-05-19T21:34:51.380Z,103065.91
2023-05-19T21:37:20.355Z,103063.25
2023-05-19T21:39:48.846Z,103064.13
2023-05-19T21:42:16.939Z,103061.47
2023-05-19T21:44:46.565Z,103060.56
2023-05-19T21:47:15.304Z,103057.88
2023-05-19T21:49:43.472Z,103056.09
2023-05-19T21:52:11.564Z,103058.75
2023-05-19T21:54:39.612Z,103056.97
2023-05-19T21:57:07.736Z,103056.97
2023-05-19T21:59:35.743Z,103053.41
2023-05-19T22:02:05.878Z,103055.19
2023-05-19T22:04:34.041Z,103062.25
2023-05-19T22:07:02.089Z,103057.81
2023-05-19T22:09:30.317Z,103064.00
2023-05-19T22:11:58.343Z,103055.13
2023-05-19T22:14:26.425Z,103060.44
2023-05-19T22:16:54.592Z,103064.00
2023-05-19T22:19:24.102Z,103052.47
2023-05-19T22:22:02.003Z,103076.34
2023-05-19T22:24:38.293Z,103066.56
2023-05-19T22:27:08.733Z,103072.78
2023-05-19T22:29:38.427Z,103071.00
2023-05-19T22:32:07.705Z,103075.44
2023-05-19T22:34:37.097Z,103072.75
2023-05-19T22:37:05.718Z,103078.94
2023-05-19T22:39:33.769Z,103078.03
2023-05-19T22:42:02.632Z,103075.41
2023-05-19T22:44:30.738Z,103075.38
2023-05-19T22:46:58.895Z,103078.00
2023-05-19T22:49:27.461Z,103072.69
2023-05-19T22:51:57.016Z,103082.41
2023-05-19T22:54:25.103Z,103078.88
2023-05-19T22:56:53.090Z,103078.88
2023-05-19T22:59:21.645Z,103072.69
2023-05-19T23:01:49.608Z,103072.69
2023-05-19T23:04:17.624Z,103077.13
2023-05-19T23:06:47.197Z,103077.13
2023-05-19T23:09:17.999Z,103073.56
2023-05-19T23:11:46.377Z,103072.72
2023-05-19T23:14:14.668Z,103076.22
2023-05-19T23:16:42.716Z,103077.09
2023-05-19T23:19:10.911Z,103070.94
2023-05-19T23:21:39.992Z,103077.13
2023-05-19T23:24:07.995Z,103078.00
2023-05-19T23:26:37.895Z,103085.94
2023-05-19T23:29:05.972Z,103086.78
2023-05-19T23:31:34.881Z,103085.03
2023-05-19T23:34:04.220Z,103081.50
2023-05-19T23:36:32.337Z,103088.56
2023-05-19T23:39:01.161Z,103082.41
2023-05-19T23:41:29.281Z,103081.53
2023-05-19T23:43:58.643Z,103085.06
2023-05-19T23:46:26.843Z,103083.28
2023-05-19T23:48:55.054Z,103084.16
2023-05-19T23:51:23.124Z,103085.06
2023-05-19T23:53:51.323Z,103085.94
2023-05-19T23:56:19.431Z,103081.50
2023-05-19T23:58:47.432Z,103089.44
